Time;durP1;ratioP1;P1;durP2;ratioP2;P2;SDS_P1;SDS_P2;PMS_P1;PMS_P2;Temp;Humidity;BMP_temperature;BMP_pressure;BME280_temperature;BME280_humidity;BME280_pressure;Samples;Min_cycle;Max_cycle;Signal;HPM_P1;HPM_P2
2022/03/25 00:00:30;;;;;;;70.93;26.98;;;;;;;6.76;77.24;102935.97;5088610;28;20043;-85
2022/03/25 00:02:55;;;;;;;69.15;27.60;;;;;;;6.74;76.26;102935.09;5088594;28;20020;-85
2022/03/25 00:05:20;;;;;;;68.10;26.42;;;;;;;6.71;78.24;102938.44;5087722;28;20430;-85
2022/03/25 00:07:46;;;;;;;72.63;27.35;;;;;;;6.71;78.15;102950.47;5088761;28;20429;-85
2022/03/25 00:10:11;;;;;;;68.82;27.38;;;;;;;6.67;78.86;102928.03;5088416;28;20027;-85
2022/03/25 00:12:37;;;;;;;72.57;26.65;;;;;;;6.61;76.94;102938.19;5088596;28;20068;-85
2022/03/25 00:15:02;;;;;;;69.47;27.63;;;;;;;6.58;78.67;102941.53;5090252;28;20028;-85
2022/03/25 00:17:28;;;;;;;67.47;27.33;;;;;;;6.54;78.71;102942.31;5105132;28;20020;-85
2022/03/25 00:19:53;;;;;;;69.57;27.90;;;;;;;6.51;78.94;102947.34;5088895;28;20304;-83
2022/03/25 00:22:18;;;;;;;69.55;26.35;;;;;;;6.44;77.63;102942.88;5095058;28;20020;-83
2022/03/25 00:24:44;;;;;;;66.68;26.55;;;;;;;6.44;77.85;102949.72;5096721;28;20079;-83
2022/03/25 00:27:09;;;;;;;73.35;27.48;;;;;;;6.41;79.36;102940.25;5088090;28;20020;-83
2022/03/25 00:29:35;;;;;;;66.25;26.30;;;;;;;6.36;77.68;102946.94;5088323;28;20043;-83
2022/03/25 00:32:02;;;;;;;68.07;26.23;;;;;;;6.31;77.38;102949.41;5074776;28;20050;-83
2022/03/25 00:34:28;;;;;;;64.18;25.90;;;;;;;6.28;78.10;102940.69;5087074;28;20058;-83
2022/03/25 00:36:53;;;;;;;71.50;27.08;;;;;;;6.23;79.83;102935.44;5067135;28;20047;-83
2022/03/25 00:39:18;;;;;;;67.55;26.85;;;;;;;6.23;79.20;102940.59;5088437;28;20059;-83
2022/03/25 00:41:44;;;;;;;66.78;26.65;;;;;;;6.23;80.09;102935.44;5091574;28;20020;-83
2022/03/25 00:44:10;;;;;;;70.85;26.20;;;;;;;6.18;78.89;102938.72;5108826;28;20030;-83
2022/03/25 00:46:36;;;;;;;65.05;26.05;;;;;;;6.12;78.11;102936.84;5105119;28;20284;-83
2022/03/25 00:49:01;;;;;;;65.68;26.60;;;;;;;6.13;80.38;102942.88;5087434;28;20039;-83
2022/03/25 00:51:28;;;;;;;69.82;25.60;;;;;;;6.14;79.53;102944.63;5068752;28;20408;-83
2022/03/25 00:53:53;;;;;;;68.32;27.15;;;;;;;6.15;80.24;102946.34;5072778;28;20450;-83
2022/03/25 00:56:18;;;;;;;70.97;26.58;;;;;;;6.11;80.36;102937.66;5091701;28;20564;-83
2022/03/25 00:58:44;;;;;;;68.63;25.05;;;;;;;6.11;80.18;102944.53;5091390;28;20532;-83
2022/03/25 01:01:10;;;;;;;69.78;25.52;;;;;;;6.05;79.71;102936.63;5091836;28;20024;-83
2022/03/25 01:03:35;;;;;;;64.10;24.50;;;;;;;5.95;77.89;102938.06;5090853;28;20103;-83
2022/03/25 01:06:01;;;;;;;56.80;24.02;;;;;;;5.93;80.09;102943.19;5104680;28;20024;-83
2022/03/25 01:08:27;;;;;;;63.72;24.90;;;;;;;5.85;78.71;102931.75;5095009;28;20047;-83
2022/03/25 01:10:52;;;;;;;68.15;25.10;;;;;;;5.84;79.33;102937.72;5091198;28;20511;-83
2022/03/25 01:13:18;;;;;;;62.47;25.23;;;;;;;5.82;79.89;102941.94;5078164;28;20028;-83
2022/03/25 01:15:43;;;;;;;65.00;25.48;;;;;;;5.82;80.12;102941.06;5112018;28;20531;-83
2022/03/25 01:18:08;;;;;;;63.00;24.70;;;;;;;5.81;78.72;102941.88;5093850;28;20035;-83
2022/03/25 01:20:34;;;;;;;64.60;26.00;;;;;;;5.79;78.83;102939.28;5101843;28;20039;-83
2022/03/25 01:22:59;;;;;;;65.28;24.15;;;;;;;5.77;78.63;102940.06;5090426;28;20028;-83
2022/03/25 01:25:25;;;;;;;63.90;25.13;;;;;;;5.76;80.70;102941.75;5080539;28;20089;-83
2022/03/25 01:27:51;;;;;;;65.82;24.90;;;;;;;5.72;78.64;102941.63;5093471;28;20789;-83
2022/03/25 01:30:19;;;;;;;62.78;25.05;;;;;;;5.69;78.48;102938.97;5093321;28;20023;-83
2022/03/25 01:32:44;;;;;;;66.00;25.30;;;;;;;5.70;80.21;102944.16;5074025;28;20028;-83
2022/03/25 01:35:10;;;;;;;54.23;23.03;;;;;;;5.64;77.83;102941.41;5091894;28;20397;-83
2022/03/25 01:37:36;;;;;;;67.30;24.73;;;;;;;5.61;79.53;102938.72;5080619;28;20281;-83
2022/03/25 01:40:05;;;;;;;62.85;24.20;;;;;;;5.52;78.75;102930.75;5091542;28;20469;-83
2022/03/25 01:42:35;;;;;;;63.42;24.90;;;;;;;5.53;79.44;102932.47;5090830;28;20558;-83
2022/03/25 01:45:01;;;;;;;62.20;23.90;;;;;;;5.52;80.12;102933.31;5107218;28;20122;-83
2022/03/25 01:47:28;;;;;;;63.38;24.23;;;;;;;5.50;79.24;102932.41;5071957;28;20024;-83
2022/03/25 01:49:54;;;;;;;65.03;25.25;;;;;;;5.52;79.65;102931.63;5090648;28;20024;-83
2022/03/25 01:52:19;;;;;;;68.15;25.50;;;;;;;5.54;78.53;102932.53;5100879;28;20137;-83
2022/03/25 01:54:44;;;;;;;60.15;23.30;;;;;;;5.54;80.07;102935.09;5077740;28;20024;-83
2022/03/25 01:57:10;;;;;;;67.57;26.15;;;;;;;5.55;79.47;102938.53;5090774;28;20024;-83
2022/03/25 01:59:37;;;;;;;63.97;23.77;;;;;;;5.52;78.85;102936.78;5103796;28;20074;-83
2022/03/25 02:02:04;;;;;;;64.05;24.25;;;;;;;5.53;79.15;102933.34;5090434;28;20485;-83
2022/03/25 02:04:30;;;;;;;58.88;22.85;;;;;;;5.56;79.45;102940.28;5090772;28;20028;-83
2022/03/25 02:06:56;;;;;;;61.08;23.73;;;;;;;5.54;79.03;102929.06;5103129;28;20433;-83
2022/03/25 02:09:21;;;;;;;59.85;23.33;;;;;;;5.51;79.33;102929.88;5097271;28;20028;-83
2022/03/25 02:11:47;;;;;;;58.78;22.17;;;;;;;5.49;78.53;102930.63;5110903;28;20058;-83
2022/03/25 02:14:12;;;;;;;57.13;22.90;;;;;;;5.48;77.71;102926.31;5075390;28;20028;-83
2022/03/25 02:16:39;;;;;;;62.08;21.83;;;;;;;5.46;78.13;102928.84;5090103;28;20118;-83
2022/03/25 02:19:05;;;;;;;62.83;22.38;;;;;;;5.46;77.96;102927.97;5073149;28;20031;-83
2022/03/25 02:21:32;;;;;;;57.90;22.70;;;;;;;5.43;77.71;102936.47;5070796;28;20028;-83
2022/03/25 02:23:58;;;;;;;57.47;22.85;;;;;;;5.43;77.72;102930.47;5090041;28;20426;-83
2022/03/25 02:26:24;;;;;;;58.00;22.67;;;;;;;5.40;78.16;102936.38;5080599;28;20038;-83
2022/03/25 02:28:49;;;;;;;55.03;21.90;;;;;;;5.34;76.79;102928.47;5098562;28;20027;-83
2022/03/25 02:31:17;;;;;;;55.63;21.85;;;;;;;5.30;76.90;102934.34;5087569;28;20039;-83
2022/03/25 02:33:42;;;;;;;59.83;22.10;;;;;;;5.24;77.11;102926.44;5070726;28;20042;-83
2022/03/25 02:36:08;;;;;;;60.03;22.73;;;;;;;5.22;78.65;102919.50;5096832;28;20110;-83
2022/03/25 02:38:34;;;;;;;62.88;22.38;;;;;;;5.19;77.39;102930.56;5072180;28;20070;-82
2022/03/25 02:40:59;;;;;;;56.20;21.65;;;;;;;5.17;78.72;102921.94;5110239;28;20551;-83
2022/03/25 02:43:24;;;;;;;55.47;21.37;;;;;;;5.12;76.97;102921.78;5103441;28;20107;-83
2022/03/25 02:45:50;;;;;;;59.42;21.67;;;;;;;5.10;77.59;102922.56;5089277;28;20656;-83
2022/03/25 02:48:15;;;;;;;52.85;21.52;;;;;;;5.00;77.54;102911.09;5095541;28;20020;-83
2022/03/25 02:50:40;;;;;;;58.20;22.05;;;;;;;4.98;77.15;102924.75;5109238;28;20038;-83
2022/03/25 02:53:06;;;;;;;54.33;21.30;;;;;;;4.94;78.01;102925.44;5106830;28;20522;-83
2022/03/25 02:55:32;;;;;;;59.20;22.20;;;;;;;4.86;77.85;102926.88;5089836;28;20189;-83
2022/03/25 02:57:57;;;;;;;56.05;21.13;;;;;;;4.82;78.42;102927.63;5071131;28;20028;-83
2022/03/25 03:00:25;;;;;;;60.17;22.02;;;;;;;4.78;77.59;102924.94;5091625;28;20103;-83
2022/03/25 03:02:50;;;;;;;57.85;20.73;;;;;;;4.74;78.09;102924.78;5088534;28;20468;-83
2022/03/25 03:05:17;;;;;;;51.97;21.35;;;;;;;4.69;78.56;102924.66;5088746;28;20516;-83
2022/03/25 03:07:45;;;;;;;56.97;20.88;;;;;;;4.63;77.99;102932.16;5089740;28;20020;-83
2022/03/25 03:10:10;;;;;;;56.25;21.00;;;;;;;4.59;79.14;102929.41;5105219;28;20016;-83
2022/03/25 03:12:37;;;;;;;53.42;21.17;;;;;;;4.53;78.14;102937.78;5076692;28;20044;-83
2022/03/25 03:15:04;;;;;;;57.72;21.40;;;;;;;4.48;78.43;102934.19;5093498;28;20030;-83
2022/03/25 03:17:30;;;;;;;60.38;22.52;;;;;;;4.47;79.38;102942.69;5105097;28;20398;-83
2022/03/25 03:19:55;;;;;;;56.05;21.35;;;;;;;4.45;79.01;102941.75;5088179;28;20073;-83
2022/03/25 03:22:22;;;;;;;60.85;21.95;;;;;;;4.44;79.88;102942.56;5089077;28;20031;-83
2022/03/25 03:24:47;;;;;;;60.00;22.13;;;;;;;4.40;79.14;102935.59;5067233;28;20020;-83
2022/03/25 03:27:13;;;;;;;61.00;23.17;;;;;;;4.40;79.35;102938.16;5089423;28;20031;-83
2022/03/25 03:29:38;;;;;;;55.92;22.80;;;;;;;4.40;78.34;102933.03;5088552;28;20055;-83
2022/03/25 03:32:05;;;;;;;59.42;22.67;;;;;;;4.39;80.27;102928.72;5088230;28;20464;-83
2022/03/25 03:34:31;;;;;;;61.88;22.63;;;;;;;4.36;79.25;102931.19;5088517;28;20031;-83
2022/03/25 03:36:57;;;;;;;54.92;21.25;;;;;;;4.30;78.82;102926.69;5089059;28;20020;-83
2022/03/25 03:39:22;;;;;;;62.03;21.73;;;;;;;4.24;80.03;102916.22;5088392;28;20030;-83
2022/03/25 03:41:47;;;;;;;59.17;22.65;;;;;;;4.22;79.54;102928.13;5102985;28;20020;-83
2022/03/25 03:44:13;;;;;;;55.08;21.67;;;;;;;4.15;78.91;102926.16;5091598;28;20450;-83
2022/03/25 03:46:38;;;;;;;57.08;21.98;;;;;;;4.10;79.69;102926.78;5074824;28;20420;-83
2022/03/25 03:49:04;;;;;;;58.88;20.65;;;;;;;4.01;79.42;102931.63;5088277;28;20028;-83
2022/03/25 03:51:29;;;;;;;53.08;21.05;;;;;;;3.95;79.61;102933.16;5104998;28;20036;-83
2022/03/25 03:53:54;;;;;;;57.43;22.03;;;;;;;3.93;80.61;102931.34;5086322;28;20453;-83
2022/03/25 03:56:20;;;;;;;58.30;21.52;;;;;;;3.89;81.14;102927.75;5104463;28;20539;-83
2022/03/25 03:58:45;;;;;;;60.25;21.65;;;;;;;3.86;80.73;102932.78;5108110;28;20028;-83
2022/03/25 04:01:11;;;;;;;60.40;22.77;;;;;;;3.85;80.93;102930.16;5074956;28;20032;-83
2022/03/25 04:03:36;;;;;;;59.78;22.27;;;;;;;3.80;80.73;102937.69;5089057;28;20024;-83
2022/03/25 04:06:02;;;;;;;57.60;22.35;;;;;;;3.73;78.96;102935.72;5087956;28;20448;-83
2022/03/25 04:08:27;;;;;;;57.47;21.00;;;;;;;3.69;81.19;102933.84;5095437;28;20023;-83
2022/03/25 04:10:52;;;;;;;64.30;23.30;;;;;;;3.65;81.31;102938.81;5090413;28;20024;-83
2022/03/25 04:13:18;;;;;;;62.78;22.83;;;;;;;3.62;80.91;102944.69;5108532;28;20024;-83
2022/03/25 04:15:43;;;;;;;61.97;22.90;;;;;;;3.61;80.43;102939.50;5087746;28;20032;-83
2022/03/25 04:18:09;;;;;;;66.20;22.00;;;;;;;3.59;81.64;102944.56;5088795;28;20494;-83
2022/03/25 04:20:34;;;;;;;64.30;22.80;;;;;;;3.56;81.11;102932.50;5099374;28;20027;-83
2022/03/25 04:23:00;;;;;;;61.63;22.27;;;;;;;3.53;80.13;102945.22;5082732;28;20020;-83
2022/03/25 04:25:26;;;;;;;64.18;22.88;;;;;;;3.52;80.14;102951.16;5088406;28;20036;-83
2022/03/25 04:27:56;;;;;;;62.40;22.85;;;;;;;3.55;81.63;102955.50;5089861;28;20032;-83
2022/03/25 04:30:26;;;;;;;60.35;22.23;;;;;;;3.55;81.41;102952.94;5092114;28;20036;-83
2022/03/25 04:32:53;;;;;;;67.20;23.42;;;;;;;3.60;82.21;102964.28;5092376;28;20035;-83
2022/03/25 04:35:19;;;;;;;64.43;23.92;;;;;;;3.60;80.60;102960.84;5101721;28;20036;-83
2022/03/25 04:37:45;;;;;;;66.53;23.85;;;;;;;3.64;80.69;102961.00;5086306;28;20020;-83
2022/03/25 04:40:11;;;;;;;68.88;23.42;;;;;;;3.67;81.20;102961.13;5091237;28;20034;-83
2022/03/25 04:42:37;;;;;;;65.60;23.08;;;;;;;3.68;81.83;102950.06;5093944;28;20043;-83
2022/03/25 04:45:03;;;;;;;59.25;23.13;;;;;;;3.66;79.98;102956.81;5101437;28;20393;-83
2022/03/25 04:47:28;;;;;;;66.57;23.88;;;;;;;3.62;80.59;102949.81;5092502;28;20417;-83
2022/03/25 04:49:53;;;;;;;62.57;23.13;;;;;;;3.62;79.91;102959.22;5110565;28;20092;-83
2022/03/25 04:52:19;;;;;;;65.70;23.40;;;;;;;3.58;79.80;102963.34;5108541;28;20921;-83
2022/03/25 04:54:44;;;;;;;66.60;24.20;;;;;;;3.57;81.43;102959.91;5098321;28;20286;-83
2022/03/25 04:57:09;;;;;;;65.35;23.80;;;;;;;3.56;81.62;102960.69;5073279;28;20314;-83
2022/03/25 04:59:37;;;;;;;64.90;23.67;;;;;;;3.52;81.41;102958.84;5090127;28;20057;-83
2022/03/25 05:02:03;;;;;;;59.22;22.52;;;;;;;3.47;81.64;102962.06;5099822;28;20016;-83
2022/03/25 05:04:28;;;;;;;64.63;22.00;;;;;;;3.41;81.42;102959.25;5103714;28;20028;-83
2022/03/25 05:06:54;;;;;;;62.97;23.33;;;;;;;3.32;81.82;102952.06;5091789;28;20028;-83
2022/03/25 05:09:19;;;;;;;60.87;23.27;;;;;;;3.29;81.71;102956.19;5077359;28;20028;-83
2022/03/25 05:11:44;;;;;;;69.33;24.20;;;;;;;3.23;82.32;102958.50;5101236;28;20779;-83
2022/03/25 05:14:10;;;;;;;66.70;23.63;;;;;;;3.17;81.99;102959.13;5091825;28;20305;-83
2022/03/25 05:16:35;;;;;;;71.70;23.85;;;;;;;3.11;81.77;102956.31;5073078;28;20074;-83
2022/03/25 05:19:01;;;;;;;61.78;22.48;;;;;;;3.04;80.76;102965.44;5091095;28;20023;-83
2022/03/25 05:21:26;;;;;;;64.35;23.30;;;;;;;3.00;81.16;102958.44;5073060;28;20027;-83
2022/03/25 05:23:51;;;;;;;67.18;22.90;;;;;;;2.98;81.58;102961.75;5089822;28;20111;-83
2022/03/25 05:26:16;;;;;;;60.70;22.37;;;;;;;2.91;80.65;102963.19;5079682;28;20028;-83
2022/03/25 05:28:42;;;;;;;62.92;22.85;;;;;;;2.88;80.93;102960.50;5092460;28;20539;-83
2022/03/25 05:31:08;;;;;;;60.88;23.35;;;;;;;2.85;81.96;102962.94;5109839;28;20206;-83
2022/03/25 05:33:33;;;;;;;67.45;23.88;;;;;;;2.84;81.05;102968.88;5056188;28;20039;-83
2022/03/25 05:35:58;;;;;;;70.20;23.70;;;;;;;2.86;82.44;102968.94;5090621;28;20027;-83
2022/03/25 05:38:36;;;;;;;67.00;23.60;;;;;;;2.86;83.21;102969.81;5072410;28;20020;-83
2022/03/25 05:41:01;;;;;;;69.90;23.73;;;;;;;2.86;82.56;102971.50;5091389;28;20024;-83
2022/03/25 05:43:28;;;;;;;66.72;24.42;;;;;;;2.88;83.16;102969.84;5090559;28;20104;-83
2022/03/25 05:45:53;;;;;;;67.22;24.67;;;;;;;2.92;83.77;102974.31;5099238;28;20024;-83
2022/03/25 05:48:19;;;;;;;69.30;24.02;;;;;;;2.93;83.22;102979.50;5090116;28;20043;-83
2022/03/25 05:50:44;;;;;;;69.05;24.05;;;;;;;2.97;83.19;102983.94;5090991;28;20042;-83
2022/03/25 05:53:09;;;;;;;68.93;24.13;;;;;;;2.99;83.27;102987.44;5072617;28;20066;-83
2022/03/25 05:55:35;;;;;;;74.00;25.40;;;;;;;3.03;84.09;102978.19;5079705;28;20061;-83
2022/03/25 05:58:01;;;;;;;64.70;23.60;;;;;;;3.08;83.28;102986.94;5090551;28;20043;-83
2022/03/25 06:00:26;;;;;;;68.97;24.00;;;;;;;3.15;83.55;102981.25;5087095;28;20031;-83
2022/03/25 06:02:52;;;;;;;66.22;23.38;;;;;;;3.20;82.72;102989.13;5072575;28;20024;-83
2022/03/25 06:05:20;;;;;;;70.93;24.70;;;;;;;3.25;83.06;102977.38;5093288;28;20067;-83
2022/03/25 06:07:45;;;;;;;71.22;25.42;;;;;;;3.50;83.63;102982.66;5095204;28;20051;-83
2022/03/25 06:10:13;;;;;;;69.68;24.60;;;;;;;3.87;83.41;102985.84;5087942;28;20055;-83
2022/03/25 06:12:39;;;;;;;73.80;26.73;;;;;;;4.50;82.45;102983.03;5094622;28;20044;-83
2022/03/25 06:15:05;;;;;;;71.78;25.73;;;;;;;5.19;80.79;102987.09;5085828;28;20032;-83
2022/03/25 06:17:31;;;;;;;76.38;26.65;;;;;;;5.76;76.84;102988.09;5074477;28;20161;-83
2022/03/25 06:19:56;;;;;;;75.78;26.90;;;;;;;6.38;74.86;102990.78;5096454;28;20050;-83
2022/03/25 06:22:25;;;;;;;76.22;27.88;;;;;;;6.89;74.43;102992.16;5073211;28;20031;-83
2022/03/25 06:24:53;;;;;;;74.32;26.98;;;;;;;7.19;72.15;102993.78;5089183;28;20431;-83
2022/03/25 06:27:19;;;;;;;75.75;26.88;;;;;;;7.36;70.35;102993.38;5092245;28;20052;-83
2022/03/25 06:29:45;;;;;;;67.70;26.15;;;;;;;7.39;69.80;102992.56;5089639;28;20035;-83
2022/03/25 06:32:10;;;;;;;75.10;27.70;;;;;;;7.29;69.03;102996.66;5096527;28;20061;-83
2022/03/25 06:34:35;;;;;;;77.60;28.47;;;;;;;7.31;71.37;102996.66;5094607;28;20020;-84
2022/03/25 06:37:02;;;;;;;77.70;29.25;;;;;;;7.17;69.54;102992.88;5095436;28;20277;-84
2022/03/25 06:39:29;;;;;;;71.45;28.52;;;;;;;7.16;70.83;102996.31;5081864;28;20024;-84
2022/03/25 06:41:54;;;;;;;79.22;29.02;;;;;;;7.18;71.07;102997.19;5089114;28;20099;-84
2022/03/25 06:44:20;;;;;;;80.50;31.02;;;;;;;7.30;68.83;103002.69;5090428;28;20128;-84
2022/03/25 06:46:45;;;;;;;78.05;29.88;;;;;;;7.55;71.21;103002.41;5089736;28;20059;-84
2022/03/25 06:49:11;;;;;;;76.25;29.90;;;;;;;7.56;69.61;102999.00;5076095;28;20032;-84
2022/03/25 06:51:37;;;;;;;78.35;30.13;;;;;;;7.56;68.58;103004.16;5086681;28;20043;-83
2022/03/25 06:54:02;;;;;;;72.20;29.10;;;;;;;7.94;68.94;103002.44;5081282;28;20023;-84
2022/03/25 06:56:28;;;;;;;76.18;29.67;;;;;;;8.45;67.52;103010.44;5070601;28;20039;-83
2022/03/25 06:58:54;;;;;;;75.20;28.85;;;;;;;8.67;64.65;103003.94;5076590;28;20024;-84
2022/03/25 07:01:20;;;;;;;74.57;30.02;;;;;;;8.87;64.66;103015.53;5099456;28;20141;-83
2022/03/25 07:03:45;;;;;;;79.40;30.70;;;;;;;9.29;62.03;103006.78;5089861;28;20453;-83
2022/03/25 07:06:11;;;;;;;81.45;31.17;;;;;;;9.29;62.95;103001.59;5104777;28;20028;-83
2022/03/25 07:08:39;;;;;;;75.10;30.02;;;;;;;9.46;61.80;103010.50;5101858;28;20027;-84
2022/03/25 07:11:05;;;;;;;75.20;30.83;;;;;;;9.93;60.65;103013.81;5086833;28;20107;-84
2022/03/25 07:13:31;;;;;;;79.95;31.73;;;;;;;10.58;59.27;103011.16;5068855;28;20064;-83
2022/03/25 07:15:56;;;;;;;77.28;31.65;;;;;;;10.76;57.92;103011.38;5068633;28;20456;-83
2022/03/25 07:18:22;;;;;;;75.43;31.90;;;;;;;10.46;57.95;103011.91;5067568;28;20028;-83
2022/03/25 07:20:47;;;;;;;71.57;31.38;;;;;;;10.14;60.27;103013.22;5068925;28;20028;-83
2022/03/25 07:23:12;;;;;;;78.50;31.63;;;;;;;9.74;60.16;103022.16;5050522;28;20028;-83
2022/03/25 07:25:38;;;;;;;81.80;34.50;;;;;;;9.42;61.11;103021.66;5067831;28;20581;-84
2022/03/25 07:28:03;;;;;;;82.63;34.22;;;;;;;9.34;62.77;103024.13;5068348;28;20281;-84
2022/03/25 07:30:29;;;;;;;77.68;33.00;;;;;;;9.42;61.59;103032.88;5066561;28;20032;-84
2022/03/25 07:32:54;;;;;;;82.05;34.15;;;;;;;9.22;62.69;103026.50;5066927;28;20017;-84
2022/03/25 07:35:19;;;;;;;79.70;33.97;;;;;;;9.40;62.38;103029.41;5067599;28;20029;-84
2022/03/25 07:37:45;;;;;;;82.15;34.28;;;;;;;9.66;63.26;103032.41;5066845;28;20279;-84
2022/03/25 07:40:12;;;;;;;79.53;33.08;;;;;;;9.63;62.28;103032.34;5067960;28;20097;-84
2022/03/25 07:42:39;;;;;;;82.45;33.88;;;;;;;9.36;62.31;103037.09;5064376;28;20044;-84
2022/03/25 07:45:08;;;;;;;83.85;34.00;;;;;;;9.01;63.48;103046.81;5067941;28;20033;-84
2022/03/25 07:47:38;;;;;;;83.93;35.03;;;;;;;8.82;64.63;103047.31;5053424;28;20031;-84
2022/03/25 07:50:04;;;;;;;79.20;33.78;;;;;;;9.07;65.28;103049.53;5068805;28;20432;-84
2022/03/25 07:52:29;;;;;;;86.20;33.95;;;;;;;9.36;63.01;103047.44;5068616;28;20457;-84
2022/03/25 07:54:55;;;;;;;81.50;33.67;;;;;;;9.52;63.76;103057.22;5068416;28;20063;-83
2022/03/25 07:57:21;;;;;;;82.68;31.98;;;;;;;9.80;62.09;103049.03;5068291;28;20178;-83
2022/03/25 07:59:46;;;;;;;77.85;33.70;;;;;;;10.11;61.00;103060.69;5068543;28;20483;-83
2022/03/25 08:02:11;;;;;;;78.75;34.22;;;;;;;10.13;60.52;103061.59;5070534;28;20510;-83
2022/03/25 08:04:37;;;;;;;77.35;33.00;;;;;;;10.28;61.38;103064.41;5072612;28;20054;-83
2022/03/25 08:07:03;;;;;;;81.10;34.87;;;;;;;10.73;59.44;103062.34;5071803;28;20028;-83
2022/03/25 08:09:29;;;;;;;75.80;33.47;;;;;;;11.33;57.41;103062.09;5072198;28;20304;-83
2022/03/25 08:11:54;;;;;;;75.28;33.17;;;;;;;11.82;57.57;103063.38;5081249;28;20040;-84
2022/03/25 08:14:20;;;;;;;76.38;33.17;;;;;;;12.26;57.60;103061.94;5078497;28;20151;-84
2022/03/25 08:16:45;;;;;;;77.70;33.10;;;;;;;12.57;53.61;103068.09;5092917;28;20020;-84
2022/03/25 08:19:11;;;;;;;75.25;32.55;;;;;;;12.87;51.79;103064.75;5110952;28;20068;-83
2022/03/25 08:21:37;;;;;;;71.20;31.05;;;;;;;13.38;53.38;103063.09;5102538;28;20095;-84
2022/03/25 08:29:30;;;;;;;74.00;33.35;;;;;;;15.50;50.48;103073.56;5082729;28;20377;-84
2022/03/25 08:31:56;;;;;;;73.60;31.98;;;;;;;15.78;44.79;103069.84;5074193;28;20441;-84
2022/03/25 08:34:24;;;;;;;63.00;29.73;;;;;;;15.80;42.50;103074.22;5092531;28;20112;-84
2022/03/25 08:36:52;;;;;;;64.38;30.45;;;;;;;15.34;43.42;103081.56;5092188;28;20104;-84
2022/03/25 08:39:18;;;;;;;65.10;31.17;;;;;;;14.87;43.43;103075.78;5092296;28;20028;-84
2022/03/25 08:41:43;;;;;;;63.53;30.52;;;;;;;14.68;45.53;103080.22;5092218;28;20024;-84
2022/03/25 08:44:10;;;;;;;63.20;30.60;;;;;;;14.59;44.77;103078.53;5091922;28;20032;-84
2022/03/25 08:46:35;;;;;;;63.88;29.52;;;;;;;14.69;44.23;103073.25;5098603;28;20023;-84
2022/03/25 08:49:02;;;;;;;61.50;31.90;;;;;;;14.31;42.71;103086.44;5095892;28;20034;-84
2022/03/25 08:51:28;;;;;;;62.05;29.40;;;;;;;14.50;43.02;103077.69;5092060;28;20115;-84
2022/03/25 08:53:53;;;;;;;67.97;31.83;;;;;;;14.32;42.95;103081.22;5092276;28;20123;-83
2022/03/25 08:56:20;;;;;;;66.40;30.70;;;;;;;14.24;43.47;103088.19;5091667;28;20032;-84
2022/03/25 08:58:45;;;;;;;65.00;29.92;;;;;;;14.22;44.02;103084.72;5072986;28;20397;-84
2022/03/25 09:01:10;;;;;;;60.78;29.52;;;;;;;14.15;43.59;103089.09;5101324;28;20503;-84
2022/03/25 09:03:36;;;;;;;63.85;29.60;;;;;;;14.16;44.54;103088.22;5109548;28;20020;-84
2022/03/25 09:06:01;;;;;;;59.95;28.77;;;;;;;14.12;43.24;103091.72;5100693;28;20155;-84
2022/03/25 09:08:27;;;;;;;60.50;28.77;;;;;;;14.32;44.36;103091.66;5093656;28;20443;-84
2022/03/25 09:10:53;;;;;;;59.53;29.30;;;;;;;14.56;43.64;103090.72;5103607;28;20024;-84
2022/03/25 09:13:19;;;;;;;62.20;28.00;;;;;;;14.79;42.35;103090.63;5106275;28;20277;-84
2022/03/25 09:15:45;;;;;;;62.92;29.33;;;;;;;14.57;41.37;103097.69;5105259;28;20111;-84
2022/03/25 09:18:10;;;;;;;62.38;29.48;;;;;;;14.38;41.88;103096.00;5112288;28;20019;-84
2022/03/25 09:20:36;;;;;;;58.35;27.83;;;;;;;14.09;41.91;103103.88;5086946;28;20107;-84
2022/03/25 09:23:01;;;;;;;61.00;28.17;;;;;;;13.79;43.44;103104.78;5091538;28;20028;-84
2022/03/25 09:25:27;;;;;;;58.97;26.73;;;;;;;13.74;44.80;103104.78;5073624;28;20115;-84
2022/03/25 09:27:52;;;;;;;62.63;31.67;;;;;;;13.70;43.87;103107.41;5073372;28;20032;-84
2022/03/25 09:30:18;;;;;;;55.88;27.40;;;;;;;13.72;44.50;103100.44;5091408;28;20428;-84
2022/03/25 09:32:43;;;;;;;57.95;28.20;;;;;;;13.74;44.79;103102.19;5073038;28;20020;-84
2022/03/25 09:35:09;;;;;;;58.25;27.70;;;;;;;13.59;43.64;103106.53;5091595;28;20043;-84
2022/03/25 09:37:53;;;;;;;60.42;28.42;;;;;;;13.56;43.95;103106.53;5091562;28;20024;-84
2022/03/25 09:40:24;;;;;;;58.90;27.50;;;;;;;13.50;44.46;103102.19;5072279;28;20039;-84
2022/03/25 09:42:52;;;;;;;57.35;26.98;;;;;;;13.41;43.90;103090.03;5071809;28;20026;-84
2022/03/25 09:45:18;;;;;;;58.65;26.83;;;;;;;13.44;44.75;103091.78;5084090;28;20072;-84
2022/03/25 09:47:45;;;;;;;59.63;28.80;;;;;;;13.34;43.65;103090.91;5083262;28;20155;-83
2022/03/25 09:50:15;;;;;;;56.05;26.00;;;;;;;13.33;44.13;103083.94;5090822;28;20020;-84
2022/03/25 09:52:44;;;;;;;60.05;26.77;;;;;;;13.36;43.95;103094.38;5090522;28;20035;-84
2022/03/25 09:55:10;;;;;;;55.22;25.73;;;;;;;13.46;44.82;103084.81;5090744;28;20055;-83
2022/03/25 09:57:37;;;;;;;54.53;25.50;;;;;;;13.45;43.20;103083.94;5090630;28;20142;-83
2022/03/25 10:00:04;;;;;;;58.78;25.65;;;;;;;13.47;43.58;103086.56;5090577;28;20020;-83
2022/03/25 10:02:29;;;;;;;58.88;28.27;;;;;;;13.55;42.88;103077.00;5101863;28;20024;-83
2022/03/25 10:04:56;;;;;;;54.90;24.80;;;;;;;13.64;43.32;103073.53;5096167;28;20105;-83
2022/03/25 10:07:23;;;;;;;53.00;24.88;;;;;;;13.74;45.02;103083.06;5102118;28;20326;-83
2022/03/25 10:10:17;;;;;;;56.30;26.90;;;;;;;13.81;44.11;103083.06;5111167;28;20029;-84
2022/03/25 10:12:46;;;;;;;54.50;25.48;;;;;;;13.93;43.39;103081.28;5079792;28;20330;-84
2022/03/25 10:15:20;;;;;;;54.13;25.73;;;;;;;14.07;43.14;103096.06;5111004;28;20019;-83
2022/03/25 10:17:53;;;;;;;49.85;24.30;;;;;;;14.13;41.54;103092.56;5109389;28;20031;-84
2022/03/25 10:20:22;;;;;;;52.42;24.48;;;;;;;14.03;41.30;103089.13;5089721;28;20116;-83
2022/03/25 10:23:03;;;;;;;50.35;23.95;;;;;;;14.03;41.56;103085.63;5103409;28;20401;-83
2022/03/25 10:25:31;;;;;;;53.70;23.58;;;;;;;13.98;40.43;103080.44;5102838;28;20088;-83
2022/03/25 10:27:57;;;;;;;52.30;23.08;;;;;;;14.01;41.37;103087.38;5110899;28;20479;-83
2022/03/25 10:30:39;;;;;;;52.45;22.85;;;;;;;14.13;42.39;103079.50;5110590;28;20027;-83
2022/03/25 10:33:36;;;;;;;49.40;23.40;;;;;;;14.23;40.37;103084.72;5089743;28;20024;-83
2022/03/25 10:36:09;;;;;;;49.15;23.42;;;;;;;14.20;40.26;103083.84;5061793;28;20122;-83
2022/03/25 10:38:48;;;;;;;49.70;23.23;;;;;;;14.26;41.37;103075.16;5090104;28;20016;-83
2022/03/25 10:41:18;;;;;;;55.10;23.30;;;;;;;14.31;41.03;103081.22;5089812;28;20059;-83
2022/03/25 10:43:54;;;;;;;53.65;24.67;;;;;;;14.38;40.96;103082.97;5090130;28;20419;-83
2022/03/25 10:46:39;;;;;;;53.55;24.08;;;;;;;14.23;41.08;103076.03;5066465;27;20390;-83
2022/03/25 10:49:06;;;;;;;49.28;23.15;;;;;;;14.14;41.01;103083.88;5066214;28;20040;-83
2022/03/25 10:51:34;;;;;;;51.28;24.08;;;;;;;14.19;42.31;103074.31;5066235;28;20032;-83
2022/03/25 10:54:10;;;;;;;55.05;24.70;;;;;;;14.29;43.07;103080.34;5066245;28;20025;-83
2022/03/25 10:56:51;;;;;;;60.42;25.98;;;;;;;14.42;42.25;103079.47;5056211;28;20033;-83
2022/03/25 10:59:31;;;;;;;53.55;25.90;;;;;;;14.48;41.86;103074.22;5051133;28;20025;-83
2022/03/25 11:02:01;;;;;;;50.95;24.08;;;;;;;14.54;40.87;103072.44;5052894;28;20029;-83
2022/03/25 11:04:27;;;;;;;56.30;24.65;;;;;;;14.55;41.81;103068.09;5046195;28;20628;-83
2022/03/25 11:06:54;;;;;;;52.55;25.17;;;;;;;14.58;41.44;103068.97;5058425;28;20032;-83
2022/03/25 11:09:20;;;;;;;52.83;24.63;;;;;;;14.65;42.74;103069.81;5058087;28;20033;-83
2022/03/25 11:11:50;;;;;;;59.83;26.20;;;;;;;14.71;41.69;103074.13;5046204;28;20178;-83
2022/03/25 11:14:16;;;;;;;57.92;27.48;;;;;;;14.73;41.73;103070.63;5044618;28;20029;-83
2022/03/25 11:16:47;;;;;;;54.72;27.45;;;;;;;14.71;41.35;103071.50;5053163;28;20033;-83